In Rescue
 
Open Full Screen Window  High Contrast Mode
Wind Gusting 00 knots
03
November 20, 2019 3:35 AM EST
Present Weather: Mist
Weather Information
Wind Direction
  290 °
Wind Speed
  03 kt (3 mph)
Wind Gust
  00 kt (0 mph)
Altimeter
30.03 in
Visibility
4 SM
Temperature
03° C
37° F
Dewpoint
02° C
36° F
Humidity
93%
1hr Rain Fall
00.00 in.
24hr Rain Fall
00.00 in.
Sky Condition
Overcast @ 3,400 ft
Broken @ 1,400 ft
Broken @ 700 ft
IFR

METAR KD95 200835Z AUTO 29003KT 4SM BR BKN007 BKN014 OVC034 03/02 A3003 RMK AO2 T00250016

FAA Disclaimer: The data displayed is for advisory purposes only and is not to be used for flight planning or operations.